createdAt,value
2017-09-22T00:00:50.846Z,92.70
2017-09-22T00:03:18.816Z,92.50
2017-09-22T00:05:46.679Z,92.40
2017-09-22T00:08:14.545Z,92.40
2017-09-22T00:10:42.413Z,92.40
2017-09-22T00:13:10.278Z,92.50
2017-09-22T00:15:38.146Z,92.60
2017-09-22T00:18:06.013Z,92.60
2017-09-22T00:20:33.881Z,92.60
2017-09-22T00:23:01.748Z,92.50
2017-09-22T00:25:29.615Z,92.30
2017-09-22T00:27:57.523Z,92.40
2017-09-22T00:30:26.169Z,92.50
2017-09-22T00:32:54.036Z,92.40
2017-09-22T00:35:21.903Z,92.50
2017-09-22T00:37:49.771Z,92.50
2017-09-22T00:40:17.638Z,92.60
2017-09-22T00:42:45.507Z,92.80
2017-09-22T00:45:13.373Z,92.70
2017-09-22T00:47:41.240Z,92.80
2017-09-22T00:50:09.109Z,93.00
2017-09-22T00:52:36.975Z,92.90
2017-09-22T00:55:04.846Z,92.90
2017-09-22T00:57:32.709Z,92.90
2017-09-22T01:00:00.577Z,92.60
2017-09-22T01:02:28.444Z,92.40
2017-09-22T01:04:56.311Z,92.40
2017-09-22T01:07:24.063Z,92.60
2017-09-22T01:09:51.944Z,92.60
2017-09-22T01:12:19.810Z,92.50
2017-09-22T01:14:47.677Z,92.40
2017-09-22T01:17:15.545Z,92.50
2017-09-22T01:19:43.446Z,92.40
2017-09-22T01:22:12.099Z,92.60
2017-09-22T01:24:39.965Z,92.60
2017-09-22T01:27:07.833Z,92.50
2017-09-22T01:29:35.700Z,92.40
2017-09-22T01:32:03.497Z,92.20
2017-09-22T01:34:31.334Z,92.20
2017-09-22T01:36:59.070Z,92.50
2017-09-22T01:39:26.798Z,92.50
2017-09-22T01:41:55.448Z,92.40
2017-09-22T01:44:23.315Z,92.40
2017-09-22T01:46:51.181Z,92.30
2017-09-22T01:49:19.049Z,92.30
2017-09-22T01:51:46.916Z,92.40
2017-09-22T01:54:14.784Z,92.60
2017-09-22T01:56:42.651Z,92.40
2017-09-22T01:59:10.517Z,92.50
2017-09-22T02:01:38.385Z,92.40
2017-09-22T02:04:06.253Z,92.20
2017-09-22T02:06:34.120Z,92.20
2017-09-22T02:09:01.987Z,92.60
2017-09-22T02:11:29.855Z,92.60
2017-09-22T02:13:57.825Z,92.70
2017-09-22T02:16:25.691Z,92.70
2017-09-22T02:18:53.486Z,92.50
2017-09-22T02:21:21.324Z,92.70
2017-09-22T02:23:49.195Z,92.70
2017-09-22T02:26:17.058Z,92.70
2017-09-22T02:28:44.926Z,92.50
2017-09-22T02:31:12.794Z,92.40
2017-09-22T02:33:40.661Z,92.40
2017-09-22T02:36:08.529Z,92.50
2017-09-22T02:38:36.395Z,92.40
2017-09-22T02:41:04.117Z,92.40
2017-09-22T02:43:31.876Z,92.30
2017-09-22T02:45:59.690Z,92.10
2017-09-22T02:48:27.557Z,92.00
2017-09-22T02:50:55.634Z,91.80
2017-09-22T02:53:23.513Z,92.00
2017-09-22T02:55:51.380Z,92.00
2017-09-22T02:58:19.233Z,91.90
2017-09-22T03:00:47.100Z,92.00
2017-09-22T03:03:14.971Z,92.30
2017-09-22T03:05:42.837Z,92.20
2017-09-22T03:08:10.703Z,92.40
2017-09-22T03:10:38.570Z,92.40
2017-09-22T03:13:06.437Z,92.60
2017-09-22T03:15:34.302Z,92.60
2017-09-22T03:18:02.374Z,92.30
2017-09-22T03:20:30.242Z,92.70
2017-09-22T03:22:58.110Z,92.70
2017-09-22T03:25:25.838Z,92.80
2017-09-22T03:27:53.571Z,92.70
2017-09-22T03:30:22.058Z,92.30
2017-09-22T03:32:50.705Z,92.50
2017-09-22T03:35:18.572Z,92.20
2017-09-22T03:37:46.439Z,92.30
2017-09-22T03:40:14.307Z,92.30
2017-09-22T03:42:42.174Z,92.20
2017-09-22T03:45:10.042Z,92.20
2017-09-22T03:47:37.914Z,92.10
2017-09-22T03:50:05.776Z,92.30
2017-09-22T03:52:33.644Z,92.40
2017-09-22T03:55:01.511Z,92.60
2017-09-22T03:57:29.378Z,92.60
2017-09-22T03:59:57.245Z,92.50
2017-09-22T04:02:25.140Z,92.50
2017-09-22T04:04:53.800Z,92.60
2017-09-22T04:07:21.667Z,92.60
2017-09-22T04:09:49.534Z,92.70
2017-09-22T04:12:17.401Z,92.90
2017-09-22T04:14:45.268Z,93.00
2017-09-22T04:17:13.136Z,92.90
2017-09-22T04:19:41.003Z,92.80
2017-09-22T04:22:08.870Z,92.90
2017-09-22T04:24:36.942Z,93.00
2017-09-22T04:27:04.810Z,93.10
2017-09-22T04:29:32.779Z,93.10
2017-09-22T04:32:00.646Z,93.40
2017-09-22T04:37:16.759Z,93.20
2017-09-22T04:39:44.626Z,93.20
2017-09-22T04:42:12.596Z,93.40
2017-09-22T04:44:40.463Z,93.30
2017-09-22T04:47:08.331Z,93.30
2017-09-22T04:49:36.198Z,93.60
2017-09-22T04:52:04.066Z,93.40
2017-09-22T04:54:31.932Z,93.20
2017-09-22T04:56:59.801Z,93.10
2017-09-22T04:59:27.667Z,93.10
2017-09-22T05:01:55.534Z,92.80
2017-09-22T05:04:23.406Z,92.70
2017-09-22T05:06:51.270Z,92.50
2017-09-22T05:09:19.138Z,92.30
2017-09-22T05:11:47.107Z,92.40
2017-09-22T05:14:14.974Z,92.50
2017-09-22T05:16:42.841Z,92.50
2017-09-22T05:19:10.708Z,92.60
2017-09-22T05:21:38.575Z,92.60
2017-09-22T05:24:06.444Z,92.40
2017-09-22T05:26:34.311Z,92.30
2017-09-22T05:29:02.280Z,92.20
2017-09-22T05:31:30.146Z,92.20
2017-09-22T05:33:58.014Z,92.10
2017-09-22T05:36:25.882Z,92.00
2017-09-22T05:38:53.749Z,91.90
2017-09-22T05:41:21.616Z,91.90
2017-09-22T05:43:49.484Z,92.00
2017-09-22T05:46:17.356Z,92.10
2017-09-22T05:48:45.218Z,92.10
2017-09-22T05:51:13.085Z,92.10
2017-09-22T05:53:40.961Z,92.10
2017-09-22T05:56:08.825Z,92.10
2017-09-22T05:58:36.691Z,92.20
2017-09-22T06:01:04.556Z,92.10
2017-09-22T06:03:32.427Z,91.80
2017-09-22T06:06:00.294Z,91.70
2017-09-22T06:08:28.159Z,92.10
2017-09-22T06:10:56.027Z,92.00
2017-09-22T06:13:23.893Z,91.80
2017-09-22T06:15:51.758Z,91.80
2017-09-22T06:18:19.626Z,93.00
2017-09-22T06:20:47.493Z,93.30
2017-09-22T06:23:15.360Z,92.80
2017-09-22T06:25:43.228Z,92.20
2017-09-22T06:28:11.096Z,91.60
2017-09-22T06:30:38.963Z,91.50
2017-09-22T06:33:06.830Z,90.60
2017-09-22T06:35:34.696Z,90.00
2017-09-22T06:38:02.564Z,89.20
2017-09-22T06:40:30.431Z,88.40
2017-09-22T06:42:58.298Z,87.20
2017-09-22T06:45:26.166Z,86.00
2017-09-22T06:47:54.034Z,85.60
2017-09-22T06:50:21.902Z,84.90
2017-09-22T06:52:49.768Z,84.60
2017-09-22T06:55:17.840Z,84.20
2017-09-22T06:57:45.708Z,84.20
2017-09-22T07:00:13.575Z,82.40
2017-09-22T07:02:41.442Z,79.00
2017-09-22T07:05:09.310Z,74.20
2017-09-22T07:07:37.176Z,69.10
2017-09-22T07:10:05.045Z,65.80
2017-09-22T07:12:32.911Z,60.80
2017-09-22T07:15:00.779Z,59.20
2017-09-22T07:17:28.646Z,57.60
2017-09-22T07:19:56.616Z,54.30
2017-09-22T07:22:24.484Z,53.30
2017-09-22T07:24:52.353Z,50.70
2017-09-22T07:27:20.234Z,48.80
2017-09-22T07:29:48.085Z,48.00
2017-09-22T07:32:15.952Z,47.70
2017-09-22T07:34:43.820Z,46.90
2017-09-22T07:37:11.688Z,47.40
2017-09-22T07:39:39.554Z,49.60
2017-09-22T07:42:07.422Z,51.20
2017-09-22T07:44:35.289Z,53.50
2017-09-22T07:47:03.156Z,53.80
2017-09-22T07:49:31.023Z,54.20
2017-09-22T07:51:58.892Z,54.20
2017-09-22T07:54:26.758Z,54.40
2017-09-22T07:56:54.629Z,54.90
2017-09-22T07:59:22.493Z,54.60
2017-09-22T08:01:50.361Z,54.30
2017-09-22T08:04:18.228Z,54.90
2017-09-22T08:06:46.095Z,54.60
2017-09-22T08:09:13.899Z,54.30
2017-09-22T08:11:42.548Z,55.00
2017-09-22T08:14:10.415Z,54.90
2017-09-22T08:16:38.383Z,55.00
2017-09-22T08:19:06.249Z,56.70
2017-09-22T08:21:34.117Z,54.90
2017-09-22T08:24:02.088Z,54.90
2017-09-22T08:26:29.954Z,57.10
2017-09-22T08:28:57.824Z,58.30
2017-09-22T08:31:25.693Z,58.40
2017-09-22T08:33:53.556Z,59.30
2017-09-22T08:36:21.525Z,61.50
2017-09-22T08:38:49.392Z,62.20
2017-09-22T08:41:17.363Z,63.60
2017-09-22T08:43:45.230Z,64.20
2017-09-22T08:46:13.097Z,64.70
2017-09-22T08:48:40.965Z,64.90
2017-09-22T08:51:08.832Z,65.40
2017-09-22T08:53:36.699Z,67.60
2017-09-22T08:56:04.566Z,66.10
2017-09-22T08:58:32.437Z,63.40
2017-09-22T09:01:00.304Z,63.10
2017-09-22T09:03:28.202Z,65.60
2017-09-22T09:05:56.855Z,66.80
2017-09-22T09:08:24.731Z,66.80
2017-09-22T09:10:52.532Z,69.20
2017-09-22T09:13:21.175Z,67.10
2017-09-22T09:15:49.045Z,67.10
2017-09-22T09:18:16.908Z,68.70
2017-09-22T09:20:44.774Z,68.90
2017-09-22T09:23:12.602Z,72.70
2017-09-22T09:25:40.411Z,70.20
2017-09-22T09:28:08.272Z,67.70
2017-09-22T09:30:36.144Z,68.00
2017-09-22T09:33:04.008Z,66.20
2017-09-22T09:35:31.875Z,62.00
2017-09-22T09:37:59.742Z,61.90
2017-09-22T09:40:27.640Z,64.70
2017-09-22T09:42:56.296Z,61.60
2017-09-22T09:45:24.162Z,61.60
2017-09-22T09:47:52.030Z,62.70
2017-09-22T09:50:19.898Z,58.40
2017-09-22T09:52:47.765Z,58.60
2017-09-22T09:55:15.633Z,59.70
2017-09-22T09:57:43.601Z,60.00
2017-09-22T10:00:11.469Z,59.10
2017-09-22T10:02:39.335Z,62.80
2017-09-22T10:05:07.203Z,61.90
2017-09-22T10:07:35.070Z,59.40
2017-09-22T10:10:02.938Z,58.90
2017-09-22T10:12:30.805Z,58.80
2017-09-22T10:14:58.877Z,59.50
2017-09-22T10:17:26.744Z,60.90
2017-09-22T10:19:54.614Z,59.30
2017-09-22T10:22:22.479Z,62.40
2017-09-22T10:24:50.346Z,59.10
2017-09-22T10:27:18.214Z,59.10
2017-09-22T10:29:46.087Z,59.80
2017-09-22T10:32:13.955Z,59.20
2017-09-22T10:34:41.815Z,59.10
2017-09-22T10:37:09.684Z,58.30
2017-09-22T10:39:37.653Z,54.10
2017-09-22T10:42:05.519Z,56.00
2017-09-22T10:44:33.386Z,57.80
2017-09-22T10:47:01.254Z,56.00
2017-09-22T10:49:29.121Z,56.00
2017-09-22T10:51:56.989Z,56.60
2017-09-22T10:54:24.849Z,58.20
2017-09-22T10:56:52.725Z,58.40
2017-09-22T10:59:20.590Z,58.20
2017-09-22T11:01:48.458Z,56.30
2017-09-22T11:04:16.324Z,54.90
2017-09-22T11:06:44.191Z,54.90
2017-09-22T11:09:12.059Z,54.60
2017-09-22T11:11:39.927Z,56.70
2017-09-22T11:14:07.797Z,55.00
2017-09-22T11:16:35.665Z,56.00
2017-09-22T11:19:03.530Z,57.20
2017-09-22T11:21:31.397Z,56.30
2017-09-22T11:23:59.264Z,56.30
2017-09-22T11:26:27.130Z,57.20
2017-09-22T11:28:54.997Z,55.30
2017-09-22T11:31:22.660Z,55.60
2017-09-22T11:33:50.016Z,56.00
2017-09-22T11:36:17.985Z,53.40
2017-09-22T11:38:45.853Z,53.80
2017-09-22T11:41:13.719Z,55.40
2017-09-22T11:43:41.586Z,57.10
2017-09-22T11:46:09.454Z,56.80
2017-09-22T11:48:37.321Z,55.40
2017-09-22T11:51:05.189Z,56.30
2017-09-22T11:53:33.056Z,56.40
2017-09-22T11:56:00.923Z,55.70
2017-09-22T11:58:28.789Z,56.40
2017-09-22T12:00:56.760Z,55.20
2017-09-22T12:03:24.627Z,54.50
2017-09-22T12:05:52.494Z,55.40
2017-09-22T12:08:20.365Z,55.60
2017-09-22T12:10:48.234Z,55.60
2017-09-22T12:13:16.101Z,56.40
2017-09-22T12:15:43.975Z,56.60
2017-09-22T12:18:11.836Z,58.40
2017-09-22T12:20:39.699Z,56.10
2017-09-22T12:23:07.570Z,53.80
2017-09-22T12:25:35.435Z,52.50
2017-09-22T12:28:03.302Z,53.60
2017-09-22T12:30:31.168Z,53.90
2017-09-22T12:32:59.034Z,54.30
2017-09-22T12:35:26.903Z,57.60
2017-09-22T12:37:54.769Z,55.70
2017-09-22T12:40:22.841Z,58.20
2017-09-22T12:42:50.710Z,57.50
2017-09-22T12:45:18.576Z,56.60
2017-09-22T12:47:46.546Z,55.00
2017-09-22T12:50:14.413Z,56.40
2017-09-22T12:52:42.383Z,57.20
2017-09-22T12:55:10.250Z,58.00
2017-09-22T12:57:38.118Z,57.60
2017-09-22T13:00:05.985Z,56.60
2017-09-22T13:02:33.852Z,57.50
2017-09-22T13:05:01.719Z,56.30
2017-09-22T13:07:29.587Z,55.40
2017-09-22T13:09:57.491Z,57.10
2017-09-22T13:12:26.141Z,56.70
2017-09-22T13:14:54.007Z,56.70
2017-09-22T13:17:21.876Z,57.80
2017-09-22T13:19:49.743Z,58.20
2017-09-22T13:22:17.814Z,56.70
2017-09-22T13:24:45.682Z,56.20
2017-09-22T13:27:13.549Z,55.90
2017-09-22T13:29:41.419Z,56.30
2017-09-22T13:32:09.285Z,55.20
2017-09-22T13:34:37.253Z,54.00
2017-09-22T13:37:05.122Z,51.80
2017-09-22T13:39:32.988Z,50.80
2017-09-22T13:42:00.856Z,52.70
2017-09-22T13:44:28.722Z,53.70
2017-09-22T13:46:56.692Z,53.50
2017-09-22T13:49:24.559Z,52.60
2017-09-22T13:51:52.428Z,54.30
2017-09-22T13:54:20.294Z,54.30
2017-09-22T13:56:48.164Z,57.00
2017-09-22T13:59:16.029Z,57.60
2017-09-22T14:01:43.898Z,54.70
2017-09-22T14:04:11.763Z,54.60
2017-09-22T14:06:39.632Z,56.40
2017-09-22T14:09:07.601Z,57.00
2017-09-22T14:11:35.468Z,55.90
2017-09-22T14:14:03.546Z,59.30
2017-09-22T14:16:31.410Z,58.70
2017-09-22T14:18:59.277Z,58.50
2017-09-22T14:21:27.346Z,59.30
2017-09-22T14:23:55.213Z,60.20
2017-09-22T14:26:23.184Z,59.40
2017-09-22T14:28:51.050Z,62.40
2017-09-22T14:31:18.919Z,63.60
2017-09-22T14:33:46.990Z,62.30
2017-09-22T14:36:14.857Z,61.90
2017-09-22T14:38:42.724Z,63.00
2017-09-22T14:41:10.592Z,65.90
2017-09-22T14:43:38.459Z,67.80
2017-09-22T14:46:06.326Z,65.50
2017-09-22T14:48:34.193Z,64.80
2017-09-22T14:51:02.061Z,64.50
2017-09-22T14:53:29.927Z,65.50
2017-09-22T14:55:57.795Z,65.70
2017-09-22T14:58:25.663Z,66.70
2017-09-22T15:00:53.531Z,67.00
2017-09-22T15:03:23.169Z,70.90
2017-09-22T15:05:53.054Z,71.00
2017-09-22T15:08:20.770Z,71.00
2017-09-22T15:10:48.499Z,72.70
2017-09-22T15:13:16.245Z,73.90
2017-09-22T15:15:43.975Z,75.20
2017-09-22T15:18:11.899Z,75.00
2017-09-22T15:20:39.641Z,74.80
2017-09-22T15:23:07.378Z,73.70
2017-09-22T15:25:35.098Z,74.80
2017-09-22T15:28:03.601Z,75.50
2017-09-22T15:30:32.243Z,75.70
2017-09-22T15:32:59.970Z,75.80
2017-09-22T15:35:27.714Z,77.30
2017-09-22T15:37:56.253Z,78.30
2017-09-22T15:40:24.119Z,78.20
2017-09-22T15:42:51.979Z,79.40
2017-09-22T15:45:19.698Z,79.20
2017-09-22T15:47:47.612Z,79.30
2017-09-22T15:50:15.341Z,80.70
2017-09-22T15:52:43.060Z,83.00
2017-09-22T15:55:10.779Z,82.10
2017-09-22T15:57:38.498Z,81.90
2017-09-22T16:00:06.224Z,82.60
2017-09-22T16:02:34.103Z,83.50
2017-09-22T16:05:01.971Z,81.90
2017-09-22T16:07:29.837Z,82.80
2017-09-22T16:09:57.706Z,83.20
2017-09-22T16:12:25.572Z,83.40
2017-09-22T16:14:53.440Z,83.60
2017-09-22T16:17:21.307Z,83.00
2017-09-22T16:19:49.174Z,85.00
2017-09-22T16:22:17.035Z,85.40
2017-09-22T16:24:44.909Z,85.30
2017-09-22T16:27:12.776Z,85.80
2017-09-22T16:29:41.566Z,85.00
2017-09-22T16:32:09.433Z,85.60
2017-09-22T16:34:37.300Z,85.30
2017-09-22T16:37:05.478Z,84.50
2017-09-22T16:39:33.342Z,84.60
2017-09-22T16:42:01.210Z,85.20
2017-09-22T16:44:29.077Z,85.80
2017-09-22T16:46:57.046Z,85.70
2017-09-22T16:49:24.914Z,85.40
2017-09-22T16:51:52.884Z,85.30
2017-09-22T16:54:20.750Z,85.30
2017-09-22T16:56:48.618Z,85.30
2017-09-22T16:59:16.484Z,85.70
2017-09-22T17:01:44.352Z,85.70
2017-09-22T17:04:12.217Z,86.00
2017-09-22T17:06:40.087Z,86.90
2017-09-22T17:09:07.888Z,87.60
2017-09-22T17:11:36.537Z,87.60
2017-09-22T17:14:04.405Z,87.60
2017-09-22T17:16:32.273Z,87.50
2017-09-22T17:19:00.141Z,87.50
2017-09-22T17:21:28.315Z,87.10
2017-09-22T17:23:56.182Z,87.20
2017-09-22T17:26:24.053Z,87.40
2017-09-22T17:28:52.022Z,87.60
2017-09-22T17:31:19.887Z,87.90
2017-09-22T17:33:47.754Z,87.80
2017-09-22T17:36:15.621Z,87.70
2017-09-22T17:38:43.490Z,87.80
2017-09-22T17:41:11.559Z,87.80
2017-09-22T17:43:39.434Z,88.00
2017-09-22T17:46:07.296Z,88.00
2017-09-22T17:48:35.162Z,88.30
2017-09-22T17:51:03.030Z,88.80
2017-09-22T17:53:30.897Z,88.80
2017-09-22T17:55:58.765Z,88.80
2017-09-22T17:58:26.631Z,89.30
2017-09-22T18:00:54.498Z,89.10
2017-09-22T18:03:22.399Z,89.30
2017-09-22T18:05:51.053Z,90.00
2017-09-22T18:08:18.920Z,90.00
2017-09-22T18:10:46.780Z,89.90
2017-09-22T18:13:14.655Z,89.50
2017-09-22T18:15:42.521Z,89.50
2017-09-22T18:18:10.389Z,89.60
2017-09-22T18:20:38.257Z,89.80
2017-09-22T18:23:06.136Z,90.10
2017-09-22T18:25:34.013Z,89.90
2017-09-22T18:28:02.681Z,90.10
2017-09-22T18:30:30.750Z,90.10
2017-09-22T18:32:58.655Z,90.10
2017-09-22T18:35:27.405Z,90.10
2017-09-22T18:37:55.278Z,90.00
2017-09-22T18:40:23.144Z,90.00
2017-09-22T18:42:51.111Z,89.80
2017-09-22T18:45:18.987Z,90.00
2017-09-22T18:47:46.952Z,90.00
2017-09-22T18:50:14.919Z,90.00
2017-09-22T18:52:42.801Z,90.00
2017-09-22T18:55:11.985Z,90.50
2017-09-22T18:57:40.159Z,90.50
2017-09-22T19:00:08.229Z,90.50
2017-09-22T19:02:36.198Z,90.60
2017-09-22T19:05:04.066Z,91.40
2017-09-22T19:07:32.036Z,91.90
2017-09-22T19:09:59.902Z,91.40
2017-09-22T19:12:28.077Z,91.30
2017-09-22T19:14:56.047Z,91.00
2017-09-22T19:17:24.119Z,91.40
2017-09-22T19:19:51.986Z,91.10
2017-09-22T19:22:19.853Z,91.30
2017-09-22T19:24:47.823Z,91.60
2017-09-22T19:27:15.691Z,91.30
2017-09-22T19:29:43.559Z,91.20
2017-09-22T19:32:11.534Z,90.80
2017-09-22T19:34:39.549Z,90.90
2017-09-22T19:37:08.184Z,90.70
2017-09-22T19:39:36.052Z,90.70
2017-09-22T19:42:04.123Z,91.10
2017-09-22T19:44:32.196Z,91.20
2017-09-22T19:47:00.268Z,91.50
2017-09-22T19:49:28.135Z,91.90
2017-09-22T19:51:56.004Z,91.60
2017-09-22T19:54:24.074Z,91.40
2017-09-22T19:56:52.043Z,91.20
2017-09-22T19:59:20.116Z,91.10
2017-09-22T20:01:47.983Z,91.20
2017-09-22T20:04:15.849Z,90.90
2017-09-22T20:06:43.717Z,90.90
2017-09-22T20:09:11.790Z,90.80
2017-09-22T20:11:39.762Z,90.80
2017-09-22T20:14:08.053Z,90.90
2017-09-22T20:16:36.034Z,91.20
2017-09-22T20:19:03.794Z,91.10
2017-09-22T20:21:31.759Z,91.40
2017-09-22T20:23:59.607Z,91.60
2017-09-22T20:26:27.782Z,91.60
2017-09-22T20:28:55.854Z,91.50
2017-09-22T20:31:23.824Z,91.10
2017-09-22T20:33:51.794Z,93.10
2017-09-22T20:36:19.666Z,92.80
2017-09-22T20:38:47.667Z,91.80
2017-09-22T20:41:16.157Z,91.80
2017-09-22T20:43:44.798Z,91.60
2017-09-22T20:46:12.665Z,91.60
2017-09-22T20:48:40.533Z,91.70
2017-09-22T20:51:14.647Z,91.50
2017-09-22T20:53:42.718Z,91.50
2017-09-22T20:56:10.585Z,91.70
2017-09-22T20:58:38.453Z,91.50
2017-09-22T21:01:06.321Z,91.30
2017-09-22T21:03:34.191Z,91.20
2017-09-22T21:06:02.055Z,91.30
2017-09-22T21:08:29.923Z,91.40
2017-09-22T21:10:57.891Z,91.00
2017-09-22T21:13:25.626Z,91.10
2017-09-22T21:15:53.347Z,91.20
2017-09-22T21:18:21.838Z,90.70
2017-09-22T21:20:50.336Z,91.00
2017-09-22T21:23:18.149Z,91.00
2017-09-22T21:25:46.018Z,91.10
2017-09-22T21:28:13.884Z,91.30
2017-09-22T21:30:41.752Z,91.40
2017-09-22T21:33:09.642Z,91.40
2017-09-22T21:35:37.486Z,91.30
2017-09-22T21:38:05.354Z,91.50
2017-09-22T21:40:33.426Z,92.20
2017-09-22T21:43:01.293Z,93.00
2017-09-22T21:45:29.160Z,93.30
2017-09-22T21:47:57.163Z,93.30
2017-09-22T21:50:25.817Z,92.80
2017-09-22T21:52:53.684Z,92.80
2017-09-22T21:55:21.482Z,92.80
2017-09-22T21:57:50.037Z,93.00
2017-09-22T22:00:17.902Z,93.00
2017-09-22T22:02:46.314Z,92.70
2017-09-22T22:05:20.603Z,92.40
2017-09-22T22:07:48.483Z,92.40
2017-09-22T22:10:16.439Z,92.30
2017-09-22T22:12:44.202Z,92.20
2017-09-22T22:15:12.068Z,92.40
2017-09-22T22:17:39.936Z,92.80
2017-09-22T22:20:07.803Z,92.60
2017-09-22T22:22:35.670Z,92.30
2017-09-22T22:25:03.541Z,92.20
2017-09-22T22:27:31.279Z,92.30
2017-09-22T22:29:59.003Z,92.80
2017-09-22T22:32:27.651Z,92.60
2017-09-22T22:34:55.518Z,92.60
2017-09-22T22:37:31.375Z,92.30
2017-09-22T22:39:59.240Z,92.30
2017-09-22T22:42:27.107Z,92.30
2017-09-22T22:44:54.974Z,92.20
2017-09-22T22:47:22.841Z,92.60
2017-09-22T22:49:50.709Z,92.20
2017-09-22T22:52:18.576Z,92.10
2017-09-22T22:54:46.444Z,92.10
2017-09-22T22:57:14.311Z,92.00
2017-09-22T22:59:42.179Z,91.90
2017-09-22T23:02:10.045Z,91.90
2017-09-22T23:04:38.015Z,91.70
2017-09-22T23:07:05.883Z,91.60
2017-09-22T23:09:33.753Z,91.60
2017-09-22T23:12:01.617Z,91.40
2017-09-22T23:14:29.485Z,91.30
2017-09-22T23:16:57.357Z,91.20
2017-09-22T23:19:25.220Z,91.30
2017-09-22T23:21:53.087Z,91.50
2017-09-22T23:24:20.854Z,93.00
2017-09-22T23:26:48.717Z,92.90
2017-09-22T23:29:16.586Z,92.50
2017-09-22T23:31:44.452Z,92.00
2017-09-22T23:34:12.324Z,92.10
2017-09-22T23:36:40.188Z,92.20
2017-09-22T23:39:08.058Z,91.90
2017-09-22T23:41:35.923Z,91.60
2017-09-22T23:44:03.790Z,91.80
2017-09-22T23:46:31.658Z,92.60
2017-09-22T23:48:59.530Z,92.10
2017-09-22T23:51:27.392Z,93.30
2017-09-22T23:53:55.259Z,92.90
2017-09-22T23:56:23.126Z,92.30
2017-09-22T23:58:50.995Z,91.90
